Etusivu
METAR-TAF:

METAR-TAF

Lentoasemat :

DeKalb Taylor Municipal Airport

DeKalb, Illinois, Yhdysvallat

Leveyspiiri: 41-55-55N, Pituuspiiri: 088-42-30W, korkeus merenpinnasta: 279 m

Tämänhetkinen sää

Tämä raportti tehtiin 24 minuuttia sitten, kello 01.35 UTC
Tuuli 13 kn lännestä/luoteesta
Lämpötila 2°C
Kosteus 75%
Ilmanpaine 1013 hPa
Näkyvyys: 16.1 km
Hajanaisia pilviä 9000 ft:n korkeudessa

METAR: KDKB 100135Z AUTO 29013KT 10SM SCT090 02/M02 A2990 RMK AO2 T00151023

Aika: 20:59 (01:59 UTC)


TAF: puuttuu

Säähavainnot ja -ennusteet yli 4000 lentoasemalta (METAR- ja TAF-raportit).

Käytössä olevat sääasemat on merkitty karttaan keltaisilla ja punaisilla pisteillä.

Aseta hiiri pisteen päälle nähdäksesi sääaseman nimen.

Klikkaa sitten nähdäksesi säähavainnot ja -ennusteet.

Kartan vaihtaminen: klikkaa mustalla rastilla varustettuja vihreitä pisteitä, niin voit zoomata sisään; viivalla varustettua vihreää pistettä, niin voit zoomata ulos tai vihreitä nuolia, niin pääset viereisille kartoille.


METAR-TAF: